sensor_id;sensor_type;location;lat;lon;timestamp;temperature;humidity
66504;DHT22;53329;44.878;20.636;2022-12-07T00:02:06;7.30;99.90
66504;DHT22;53329;44.878;20.636;2022-12-07T00:04:32;7.30;99.90
66504;DHT22;53329;44.878;20.636;2022-12-07T00:06:57;7.30;99.90
66504;DHT22;53329;44.878;20.636;2022-12-07T00:09:23;7.30;99.90
66504;DHT22;53329;44.878;20.636;2022-12-07T00:11:50;7.30;99.90
66504;DHT22;53329;44.878;20.636;2022-12-07T00:14:17;7.30;99.90
66504;DHT22;53329;44.878;20.636;2022-12-07T00:16:43;7.30;99.90
66504;DHT22;53329;44.878;20.636;2022-12-07T00:19:10;7.30;99.90
66504;DHT22;53329;44.878;20.636;2022-12-07T00:21:36;7.30;99.90
66504;DHT22;53329;44.878;20.636;2022-12-07T00:24:04;7.40;99.90
66504;DHT22;53329;44.878;20.636;2022-12-07T00:26:32;7.40;99.90
66504;DHT22;53329;44.878;20.636;2022-12-07T00:29:00;7.40;99.90
66504;DHT22;53329;44.878;20.636;2022-12-07T00:31:28;7.40;99.90
66504;DHT22;53329;44.878;20.636;2022-12-07T00:33:55;7.40;99.90
66504;DHT22;53329;44.878;20.636;2022-12-07T00:36:23;7.40;99.90
66504;DHT22;53329;44.878;20.636;2022-12-07T00:38:49;7.50;99.90
66504;DHT22;53329;44.878;20.636;2022-12-07T00:41:20;7.40;99.90
66504;DHT22;53329;44.878;20.636;2022-12-07T00:43:48;7.40;99.90
66504;DHT22;53329;44.878;20.636;2022-12-07T00:46:15;7.40;99.90
66504;DHT22;53329;44.878;20.636;2022-12-07T00:48:41;7.40;99.90
66504;DHT22;53329;44.878;20.636;2022-12-07T00:51:07;7.40;99.90
66504;DHT22;53329;44.878;20.636;2022-12-07T00:53:36;7.40;99.90
66504;DHT22;53329;44.878;20.636;2022-12-07T00:56:08;7.40;99.90
66504;DHT22;53329;44.878;20.636;2022-12-07T00:58:34;7.40;99.90
66504;DHT22;53329;44.878;20.636;2022-12-07T01:01:01;7.40;99.90
66504;DHT22;53329;44.878;20.636;2022-12-07T01:03:27;7.30;99.90
66504;DHT22;53329;44.878;20.636;2022-12-07T01:05:54;7.30;99.90
66504;DHT22;53329;44.878;20.636;2022-12-07T01:08:21;7.30;99.90
66504;DHT22;53329;44.878;20.636;2022-12-07T01:10:47;7.40;99.90
66504;DHT22;53329;44.878;20.636;2022-12-07T01:13:14;7.30;99.90
66504;DHT22;53329;44.878;20.636;2022-12-07T01:15:40;7.20;99.90
66504;DHT22;53329;44.878;20.636;2022-12-07T01:18:06;7.30;99.90
66504;DHT22;53329;44.878;20.636;2022-12-07T01:20:32;7.20;99.90
66504;DHT22;53329;44.878;20.636;2022-12-07T01:22:57;7.20;99.90
66504;DHT22;53329;44.878;20.636;2022-12-07T01:25:23;7.20;99.90
66504;DHT22;53329;44.878;20.636;2022-12-07T01:27:49;7.20;99.90
66504;DHT22;53329;44.878;20.636;2022-12-07T01:30:15;7.30;99.90
66504;DHT22;53329;44.878;20.636;2022-12-07T01:32:41;7.20;97.70
66504;DHT22;53329;44.878;20.636;2022-12-07T01:35:06;7.20;96.40
66504;DHT22;53329;44.878;20.636;2022-12-07T01:37:39;7.20;97.00
66504;DHT22;53329;44.878;20.636;2022-12-07T01:40:07;7.20;98.20
66504;DHT22;53329;44.878;20.636;2022-12-07T01:42:34;7.10;97.20
66504;DHT22;53329;44.878;20.636;2022-12-07T01:45:41;7.00;93.00
66504;DHT22;53329;44.878;20.636;2022-12-07T01:48:05;7.00;99.90
66504;DHT22;53329;44.878;20.636;2022-12-07T01:50:33;6.90;99.90
66504;DHT22;53329;44.878;20.636;2022-12-07T01:53:02;7.00;99.90
66504;DHT22;53329;44.878;20.636;2022-12-07T01:55:29;6.90;99.90
66504;DHT22;53329;44.878;20.636;2022-12-07T01:57:55;6.90;99.90
66504;DHT22;53329;44.878;20.636;2022-12-07T02:00:22;6.70;99.90
66504;DHT22;53329;44.878;20.636;2022-12-07T02:02:53;6.70;99.90
66504;DHT22;53329;44.878;20.636;2022-12-07T02:05:19;6.70;99.90
66504;DHT22;53329;44.878;20.636;2022-12-07T02:07:46;6.80;99.90
66504;DHT22;53329;44.878;20.636;2022-12-07T02:10:21;6.80;99.90
66504;DHT22;53329;44.878;20.636;2022-12-07T02:12:51;6.60;99.90
66504;DHT22;53329;44.878;20.636;2022-12-07T02:15:20;6.70;99.90
66504;DHT22;53329;44.878;20.636;2022-12-07T02:18:05;6.60;99.90
66504;DHT22;53329;44.878;20.636;2022-12-07T02:20:38;6.60;99.90
66504;DHT22;53329;44.878;20.636;2022-12-07T02:24:47;6.60;99.90
66504;DHT22;53329;44.878;20.636;2022-12-07T02:29:23;6.80;99.90
66504;DHT22;53329;44.878;20.636;2022-12-07T02:31:55;6.90;99.90
66504;DHT22;53329;44.878;20.636;2022-12-07T02:34:32;6.90;99.90
66504;DHT22;53329;44.878;20.636;2022-12-07T02:37:03;6.90;99.90
66504;DHT22;53329;44.878;20.636;2022-12-07T02:39:46;7.00;99.90
66504;DHT22;53329;44.878;20.636;2022-12-07T02:42:26;7.00;99.90
66504;DHT22;53329;44.878;20.636;2022-12-07T02:44:54;7.10;99.90
66504;DHT22;53329;44.878;20.636;2022-12-07T02:47:21;7.00;99.90
66504;DHT22;53329;44.878;20.636;2022-12-07T02:49:49;7.10;99.90
66504;DHT22;53329;44.878;20.636;2022-12-07T02:52:15;7.10;99.90
66504;DHT22;53329;44.878;20.636;2022-12-07T02:54:41;7.10;99.90
66504;DHT22;53329;44.878;20.636;2022-12-07T02:57:22;7.10;99.90
66504;DHT22;53329;44.878;20.636;2022-12-07T03:00:13;7.10;99.90
66504;DHT22;53329;44.878;20.636;2022-12-07T03:03:00;7.10;99.90
66504;DHT22;53329;44.878;20.636;2022-12-07T03:05:43;7.10;99.90
66504;DHT22;53329;44.878;20.636;2022-12-07T03:08:18;7.10;99.90
66504;DHT22;53329;44.878;20.636;2022-12-07T03:11:03;7.20;99.90
66504;DHT22;53329;44.878;20.636;2022-12-07T03:13:41;7.20;99.90
66504;DHT22;53329;44.878;20.636;2022-12-07T03:16:28;7.20;99.90
66504;DHT22;53329;44.878;20.636;2022-12-07T03:19:06;7.20;99.90
66504;DHT22;53329;44.878;20.636;2022-12-07T03:21:38;7.20;99.90
66504;DHT22;53329;44.878;20.636;2022-12-07T03:24:08;7.30;99.90
66504;DHT22;53329;44.878;20.636;2022-12-07T03:26:38;7.40;99.90
66504;DHT22;53329;44.878;20.636;2022-12-07T03:29:09;7.40;99.90
66504;DHT22;53329;44.878;20.636;2022-12-07T03:31:43;7.40;99.90
66504;DHT22;53329;44.878;20.636;2022-12-07T03:34:21;7.40;99.90
66504;DHT22;53329;44.878;20.636;2022-12-07T03:36:54;7.30;99.90
66504;DHT22;53329;44.878;20.636;2022-12-07T03:39:32;7.40;99.90
66504;DHT22;53329;44.878;20.636;2022-12-07T03:42:01;7.30;99.90
66504;DHT22;53329;44.878;20.636;2022-12-07T03:44:29;7.40;99.90
66504;DHT22;53329;44.878;20.636;2022-12-07T03:47:23;7.30;99.90
66504;DHT22;53329;44.878;20.636;2022-12-07T03:50:14;7.30;99.90
66504;DHT22;53329;44.878;20.636;2022-12-07T03:52:46;7.40;99.90
66504;DHT22;53329;44.878;20.636;2022-12-07T03:55:29;7.40;99.90
66504;DHT22;53329;44.878;20.636;2022-12-07T03:58:00;7.40;99.90
66504;DHT22;53329;44.878;20.636;2022-12-07T04:00:27;7.40;99.90
66504;DHT22;53329;44.878;20.636;2022-12-07T04:02:53;7.30;99.90
66504;DHT22;53329;44.878;20.636;2022-12-07T04:05:19;7.30;99.90
66504;DHT22;53329;44.878;20.636;2022-12-07T04:07:44;7.20;99.90
66504;DHT22;53329;44.878;20.636;2022-12-07T04:10:10;7.20;99.90
66504;DHT22;53329;44.878;20.636;2022-12-07T04:12:36;7.10;99.90
66504;DHT22;53329;44.878;20.636;2022-12-07T04:15:03;7.20;99.90
66504;DHT22;53329;44.878;20.636;2022-12-07T04:17:28;7.20;99.90
66504;DHT22;53329;44.878;20.636;2022-12-07T04:19:54;7.30;99.90
66504;DHT22;53329;44.878;20.636;2022-12-07T04:22:20;7.20;99.90
66504;DHT22;53329;44.878;20.636;2022-12-07T04:24:46;7.10;99.90
66504;DHT22;53329;44.878;20.636;2022-12-07T04:27:12;7.20;99.90
66504;DHT22;53329;44.878;20.636;2022-12-07T04:29:37;7.10;99.90
66504;DHT22;53329;44.878;20.636;2022-12-07T04:32:03;7.10;99.90
66504;DHT22;53329;44.878;20.636;2022-12-07T04:34:29;7.10;99.90
66504;DHT22;53329;44.878;20.636;2022-12-07T04:36:55;7.10;99.90
66504;DHT22;53329;44.878;20.636;2022-12-07T04:39:26;7.00;99.90
66504;DHT22;53329;44.878;20.636;2022-12-07T04:41:52;7.00;99.90
66504;DHT22;53329;44.878;20.636;2022-12-07T04:44:18;7.00;99.90
66504;DHT22;53329;44.878;20.636;2022-12-07T04:46:44;6.90;99.90
66504;DHT22;53329;44.878;20.636;2022-12-07T04:49:11;7.00;99.90
66504;DHT22;53329;44.878;20.636;2022-12-07T04:51:37;7.00;99.90
66504;DHT22;53329;44.878;20.636;2022-12-07T04:54:03;7.20;99.90
66504;DHT22;53329;44.878;20.636;2022-12-07T04:56:29;7.30;99.90
66504;DHT22;53329;44.878;20.636;2022-12-07T04:58:55;7.10;99.90
66504;DHT22;53329;44.878;20.636;2022-12-07T05:01:22;7.20;99.90
66504;DHT22;53329;44.878;20.636;2022-12-07T05:03:48;7.30;99.90
66504;DHT22;53329;44.878;20.636;2022-12-07T05:06:14;7.20;99.90
66504;DHT22;53329;44.878;20.636;2022-12-07T05:08:40;7.30;99.90
66504;DHT22;53329;44.878;20.636;2022-12-07T05:11:07;7.20;99.90
66504;DHT22;53329;44.878;20.636;2022-12-07T05:13:33;7.10;99.90
66504;DHT22;53329;44.878;20.636;2022-12-07T05:15:59;7.20;99.90
66504;DHT22;53329;44.878;20.636;2022-12-07T05:18:25;7.20;99.90
66504;DHT22;53329;44.878;20.636;2022-12-07T05:20:52;7.10;99.90
66504;DHT22;53329;44.878;20.636;2022-12-07T05:23:18;7.10;99.90
66504;DHT22;53329;44.878;20.636;2022-12-07T05:25:44;7.20;99.90
66504;DHT22;53329;44.878;20.636;2022-12-07T05:28:09;7.30;99.90
66504;DHT22;53329;44.878;20.636;2022-12-07T05:30:35;7.30;99.90
66504;DHT22;53329;44.878;20.636;2022-12-07T05:33:01;7.30;99.90
66504;DHT22;53329;44.878;20.636;2022-12-07T05:35:28;7.30;99.90
66504;DHT22;53329;44.878;20.636;2022-12-07T05:37:54;7.30;99.90
66504;DHT22;53329;44.878;20.636;2022-12-07T05:40:20;7.30;99.90
66504;DHT22;53329;44.878;20.636;2022-12-07T05:42:46;7.30;99.90
66504;DHT22;53329;44.878;20.636;2022-12-07T05:45:12;7.30;99.90
66504;DHT22;53329;44.878;20.636;2022-12-07T05:47:37;7.30;99.90
66504;DHT22;53329;44.878;20.636;2022-12-07T05:50:04;7.30;99.90
66504;DHT22;53329;44.878;20.636;2022-12-07T05:52:30;7.30;99.90
66504;DHT22;53329;44.878;20.636;2022-12-07T05:54:56;7.30;99.90
66504;DHT22;53329;44.878;20.636;2022-12-07T05:57:22;7.20;99.90
66504;DHT22;53329;44.878;20.636;2022-12-07T05:59:47;7.20;99.90
66504;DHT22;53329;44.878;20.636;2022-12-07T06:02:15;7.00;99.90
66504;DHT22;53329;44.878;20.636;2022-12-07T06:04:46;7.00;99.90
66504;DHT22;53329;44.878;20.636;2022-12-07T06:07:14;7.00;99.90
66504;DHT22;53329;44.878;20.636;2022-12-07T06:09:40;6.90;99.90
66504;DHT22;53329;44.878;20.636;2022-12-07T06:12:06;7.00;99.90
66504;DHT22;53329;44.878;20.636;2022-12-07T06:14:54;7.00;99.90
66504;DHT22;53329;44.878;20.636;2022-12-07T06:17:20;7.10;99.90
66504;DHT22;53329;44.878;20.636;2022-12-07T06:19:45;7.10;99.90
66504;DHT22;53329;44.878;20.636;2022-12-07T06:22:12;7.10;99.90
66504;DHT22;53329;44.878;20.636;2022-12-07T06:24:38;7.20;99.90
66504;DHT22;53329;44.878;20.636;2022-12-07T06:27:04;7.20;99.90
66504;DHT22;53329;44.878;20.636;2022-12-07T06:29:30;7.20;99.90
66504;DHT22;53329;44.878;20.636;2022-12-07T06:31:56;7.10;99.90
66504;DHT22;53329;44.878;20.636;2022-12-07T06:34:24;7.20;99.90
66504;DHT22;53329;44.878;20.636;2022-12-07T06:36:51;7.10;99.90
66504;DHT22;53329;44.878;20.636;2022-12-07T06:39:19;7.10;99.90
66504;DHT22;53329;44.878;20.636;2022-12-07T06:41:46;7.00;99.90
66504;DHT22;53329;44.878;20.636;2022-12-07T06:44:12;7.00;99.90
66504;DHT22;53329;44.878;20.636;2022-12-07T06:46:37;7.00;99.90
66504;DHT22;53329;44.878;20.636;2022-12-07T06:49:04;6.90;99.90
66504;DHT22;53329;44.878;20.636;2022-12-07T06:51:30;6.90;99.90
66504;DHT22;53329;44.878;20.636;2022-12-07T06:53:56;7.10;99.90
66504;DHT22;53329;44.878;20.636;2022-12-07T06:56:21;7.10;99.90
66504;DHT22;53329;44.878;20.636;2022-12-07T06:58:48;6.90;99.90
66504;DHT22;53329;44.878;20.636;2022-12-07T07:01:17;6.90;99.90
66504;DHT22;53329;44.878;20.636;2022-12-07T07:03:44;7.00;99.90
66504;DHT22;53329;44.878;20.636;2022-12-07T07:06:11;6.90;99.90
66504;DHT22;53329;44.878;20.636;2022-12-07T07:08:38;6.90;99.90
66504;DHT22;53329;44.878;20.636;2022-12-07T07:11:17;6.90;99.90
66504;DHT22;53329;44.878;20.636;2022-12-07T07:13:46;7.00;99.90
66504;DHT22;53329;44.878;20.636;2022-12-07T07:16:12;7.00;99.90
66504;DHT22;53329;44.878;20.636;2022-12-07T07:18:38;7.00;99.90
66504;DHT22;53329;44.878;20.636;2022-12-07T07:21:04;6.90;99.90
66504;DHT22;53329;44.878;20.636;2022-12-07T07:23:30;7.00;99.90
66504;DHT22;53329;44.878;20.636;2022-12-07T07:25:56;6.90;99.90
66504;DHT22;53329;44.878;20.636;2022-12-07T07:28:25;6.90;99.90
66504;DHT22;53329;44.878;20.636;2022-12-07T07:31:09;7.00;99.90
66504;DHT22;53329;44.878;20.636;2022-12-07T07:33:43;7.00;99.90
66504;DHT22;53329;44.878;20.636;2022-12-07T07:36:17;7.20;99.90
66504;DHT22;53329;44.878;20.636;2022-12-07T07:38:42;7.20;99.90
66504;DHT22;53329;44.878;20.636;2022-12-07T07:41:08;7.20;99.90
66504;DHT22;53329;44.878;20.636;2022-12-07T07:43:34;7.30;99.90
66504;DHT22;53329;44.878;20.636;2022-12-07T07:46:00;7.50;99.90
66504;DHT22;53329;44.878;20.636;2022-12-07T07:48:28;7.50;99.90
66504;DHT22;53329;44.878;20.636;2022-12-07T07:50:54;8.00;99.90
66504;DHT22;53329;44.878;20.636;2022-12-07T07:53:20;8.00;99.90
66504;DHT22;53329;44.878;20.636;2022-12-07T07:55:53;8.40;99.90
66504;DHT22;53329;44.878;20.636;2022-12-07T07:58:19;9.00;99.90
66504;DHT22;53329;44.878;20.636;2022-12-07T08:00:45;9.30;99.90
66504;DHT22;53329;44.878;20.636;2022-12-07T08:03:11;9.60;99.90
66504;DHT22;53329;44.878;20.636;2022-12-07T08:05:37;9.70;99.90
66504;DHT22;53329;44.878;20.636;2022-12-07T08:08:03;9.70;99.90
66504;DHT22;53329;44.878;20.636;2022-12-07T08:10:33;9.70;99.90
66504;DHT22;53329;44.878;20.636;2022-12-07T08:13:01;9.70;99.90
66504;DHT22;53329;44.878;20.636;2022-12-07T08:15:38;9.70;99.90
66504;DHT22;53329;44.878;20.636;2022-12-07T08:18:04;9.50;99.90
66504;DHT22;53329;44.878;20.636;2022-12-07T08:20:31;9.30;99.90
66504;DHT22;53329;44.878;20.636;2022-12-07T08:22:58;9.30;99.90
66504;DHT22;53329;44.878;20.636;2022-12-07T08:25:24;9.30;99.90
66504;DHT22;53329;44.878;20.636;2022-12-07T08:27:51;9.30;99.90
66504;DHT22;53329;44.878;20.636;2022-12-07T08:30:17;9.20;99.90
66504;DHT22;53329;44.878;20.636;2022-12-07T08:32:44;9.10;99.90
66504;DHT22;53329;44.878;20.636;2022-12-07T08:35:10;9.10;99.90
66504;DHT22;53329;44.878;20.636;2022-12-07T08:37:36;9.00;99.90
66504;DHT22;53329;44.878;20.636;2022-12-07T08:40:03;8.90;99.90
66504;DHT22;53329;44.878;20.636;2022-12-07T08:42:29;8.80;99.90
66504;DHT22;53329;44.878;20.636;2022-12-07T08:45:09;9.90;99.90
66504;DHT22;53329;44.878;20.636;2022-12-07T08:47:39;8.60;99.90
66504;DHT22;53329;44.878;20.636;2022-12-07T08:50:07;8.60;99.90
66504;DHT22;53329;44.878;20.636;2022-12-07T08:52:36;8.60;99.90
66504;DHT22;53329;44.878;20.636;2022-12-07T08:55:03;8.70;99.90
66504;DHT22;53329;44.878;20.636;2022-12-07T08:57:32;8.40;99.90
66504;DHT22;53329;44.878;20.636;2022-12-07T08:59:59;7.40;99.90
66504;DHT22;53329;44.878;20.636;2022-12-07T09:02:25;7.30;99.90
66504;DHT22;53329;44.878;20.636;2022-12-07T09:04:50;7.30;99.90
66504;DHT22;53329;44.878;20.636;2022-12-07T09:07:16;7.30;99.90
66504;DHT22;53329;44.878;20.636;2022-12-07T09:09:42;7.30;99.90
66504;DHT22;53329;44.878;20.636;2022-12-07T09:12:08;7.40;99.90
66504;DHT22;53329;44.878;20.636;2022-12-07T09:14:34;7.30;99.90
66504;DHT22;53329;44.878;20.636;2022-12-07T09:17:08;7.30;99.90
66504;DHT22;53329;44.878;20.636;2022-12-07T09:19:34;7.40;99.90
66504;DHT22;53329;44.878;20.636;2022-12-07T09:22:00;7.40;99.90
66504;DHT22;53329;44.878;20.636;2022-12-07T09:24:26;7.50;99.90
66504;DHT22;53329;44.878;20.636;2022-12-07T09:26:55;7.40;99.90
66504;DHT22;53329;44.878;20.636;2022-12-07T09:29:21;7.60;99.90
66504;DHT22;53329;44.878;20.636;2022-12-07T09:31:46;7.60;99.90
66504;DHT22;53329;44.878;20.636;2022-12-07T09:34:12;7.60;99.90
66504;DHT22;53329;44.878;20.636;2022-12-07T09:36:38;7.70;99.90
66504;DHT22;53329;44.878;20.636;2022-12-07T09:39:04;7.80;99.90
66504;DHT22;53329;44.878;20.636;2022-12-07T09:41:31;8.00;99.90
66504;DHT22;53329;44.878;20.636;2022-12-07T09:44:05;7.80;99.90
66504;DHT22;53329;44.878;20.636;2022-12-07T09:46:35;7.70;99.90
66504;DHT22;53329;44.878;20.636;2022-12-07T09:49:02;7.70;99.90
66504;DHT22;53329;44.878;20.636;2022-12-07T09:51:31;7.90;99.90
66504;DHT22;53329;44.878;20.636;2022-12-07T09:54:01;8.10;99.90
66504;DHT22;53329;44.878;20.636;2022-12-07T09:56:29;7.90;99.90
66504;DHT22;53329;44.878;20.636;2022-12-07T09:59:00;8.00;99.90
66504;DHT22;53329;44.878;20.636;2022-12-07T10:01:29;8.00;99.90
66504;DHT22;53329;44.878;20.636;2022-12-07T10:04:24;7.90;99.90
66504;DHT22;53329;44.878;20.636;2022-12-07T10:06:51;8.00;99.90
66504;DHT22;53329;44.878;20.636;2022-12-07T10:09:19;8.00;99.90
66504;DHT22;53329;44.878;20.636;2022-12-07T10:11:59;8.00;99.90
66504;DHT22;53329;44.878;20.636;2022-12-07T10:14:39;8.00;99.90
66504;DHT22;53329;44.878;20.636;2022-12-07T10:17:34;7.90;99.90
66504;DHT22;53329;44.878;20.636;2022-12-07T10:20:19;7.80;99.90
66504;DHT22;53329;44.878;20.636;2022-12-07T10:23:03;7.80;99.90
66504;DHT22;53329;44.878;20.636;2022-12-07T10:25:32;7.90;99.90
66504;DHT22;53329;44.878;20.636;2022-12-07T10:28:00;7.70;99.90
66504;DHT22;53329;44.878;20.636;2022-12-07T10:30:31;7.70;99.90
66504;DHT22;53329;44.878;20.636;2022-12-07T10:32:58;7.70;99.90
66504;DHT22;53329;44.878;20.636;2022-12-07T10:35:43;7.70;99.90
66504;DHT22;53329;44.878;20.636;2022-12-07T10:38:16;7.80;99.90
66504;DHT22;53329;44.878;20.636;2022-12-07T10:40:42;7.90;99.90
66504;DHT22;53329;44.878;20.636;2022-12-07T10:43:18;8.00;99.90
66504;DHT22;53329;44.878;20.636;2022-12-07T10:46:50;8.00;99.90
66504;DHT22;53329;44.878;20.636;2022-12-07T10:49:24;8.10;99.90
66504;DHT22;53329;44.878;20.636;2022-12-07T10:52:00;8.10;99.90
66504;DHT22;53329;44.878;20.636;2022-12-07T10:56:02;8.10;99.90
66504;DHT22;53329;44.878;20.636;2022-12-07T10:58:08;8.20;99.90
66504;DHT22;53329;44.878;20.636;2022-12-07T11:00:44;8.10;99.90
66504;DHT22;53329;44.878;20.636;2022-12-07T11:03:37;8.30;99.90
66504;DHT22;53329;44.878;20.636;2022-12-07T11:08:21;8.30;99.90
66504;DHT22;53329;44.878;20.636;2022-12-07T11:10:50;8.40;99.90
66504;DHT22;53329;44.878;20.636;2022-12-07T11:12:47;8.30;99.90
66504;DHT22;53329;44.878;20.636;2022-12-07T11:15:27;8.30;99.90
66504;DHT22;53329;44.878;20.636;2022-12-07T11:18:13;8.30;99.90
66504;DHT22;53329;44.878;20.636;2022-12-07T11:20:56;8.30;99.90
66504;DHT22;53329;44.878;20.636;2022-12-07T11:23:53;8.40;99.90
66504;DHT22;53329;44.878;20.636;2022-12-07T11:27:04;8.40;99.90
66504;DHT22;53329;44.878;20.636;2022-12-07T11:30:19;8.40;99.90
66504;DHT22;53329;44.878;20.636;2022-12-07T11:32:19;8.40;99.90
66504;DHT22;53329;44.878;20.636;2022-12-07T11:35:03;8.50;99.90
66504;DHT22;53329;44.878;20.636;2022-12-07T11:37:34;8.30;99.90
66504;DHT22;53329;44.878;20.636;2022-12-07T11:40:05;8.20;99.90
66504;DHT22;53329;44.878;20.636;2022-12-07T11:42:41;8.30;99.90
66504;DHT22;53329;44.878;20.636;2022-12-07T11:45:16;8.20;99.90
66504;DHT22;53329;44.878;20.636;2022-12-07T11:47:55;8.20;99.90
66504;DHT22;53329;44.878;20.636;2022-12-07T11:50:40;8.30;99.90
66504;DHT22;53329;44.878;20.636;2022-12-07T11:53:17;8.30;99.90
66504;DHT22;53329;44.878;20.636;2022-12-07T11:56:17;8.30;99.90
66504;DHT22;53329;44.878;20.636;2022-12-07T11:59:00;8.20;99.90
66504;DHT22;53329;44.878;20.636;2022-12-07T12:01:42;8.10;99.90
66504;DHT22;53329;44.878;20.636;2022-12-07T12:04:23;8.00;99.90
66504;DHT22;53329;44.878;20.636;2022-12-07T12:06:51;8.00;99.90
66504;DHT22;53329;44.878;20.636;2022-12-07T12:09:33;8.00;99.90
66504;DHT22;53329;44.878;20.636;2022-12-07T12:12:40;8.10;99.90
66504;DHT22;53329;44.878;20.636;2022-12-07T12:17:01;8.10;99.90
66504;DHT22;53329;44.878;20.636;2022-12-07T12:18:47;8.00;99.90
66504;DHT22;53329;44.878;20.636;2022-12-07T12:21:20;8.00;99.90
66504;DHT22;53329;44.878;20.636;2022-12-07T12:23:56;8.10;99.90
66504;DHT22;53329;44.878;20.636;2022-12-07T12:26:26;8.20;99.90
66504;DHT22;53329;44.878;20.636;2022-12-07T12:28:55;8.50;99.90
66504;DHT22;53329;44.878;20.636;2022-12-07T12:31:35;8.30;99.90
66504;DHT22;53329;44.878;20.636;2022-12-07T12:34:05;8.50;99.90
66504;DHT22;53329;44.878;20.636;2022-12-07T12:36:49;8.40;99.90
66504;DHT22;53329;44.878;20.636;2022-12-07T12:39:18;8.40;99.90
66504;DHT22;53329;44.878;20.636;2022-12-07T12:41:52;8.50;99.90
66504;DHT22;53329;44.878;20.636;2022-12-07T12:44:40;8.50;99.90
66504;DHT22;53329;44.878;20.636;2022-12-07T12:47:40;8.60;99.90
66504;DHT22;53329;44.878;20.636;2022-12-07T12:50:20;8.40;99.90
66504;DHT22;53329;44.878;20.636;2022-12-07T12:52:50;8.20;99.90
66504;DHT22;53329;44.878;20.636;2022-12-07T12:55:18;8.20;99.90
66504;DHT22;53329;44.878;20.636;2022-12-07T12:57:48;8.10;99.90
66504;DHT22;53329;44.878;20.636;2022-12-07T13:00:32;8.20;99.90
66504;DHT22;53329;44.878;20.636;2022-12-07T13:02:59;8.20;99.90
66504;DHT22;53329;44.878;20.636;2022-12-07T13:05:27;8.10;99.90
66504;DHT22;53329;44.878;20.636;2022-12-07T13:07:56;8.20;99.90
66504;DHT22;53329;44.878;20.636;2022-12-07T13:10:34;8.10;99.90
66504;DHT22;53329;44.878;20.636;2022-12-07T13:20:00;8.10;99.90
66504;DHT22;53329;44.878;20.636;2022-12-07T13:22:37;7.90;99.90
66504;DHT22;53329;44.878;20.636;2022-12-07T13:25:11;7.90;99.90
66504;DHT22;53329;44.878;20.636;2022-12-07T13:27:37;7.90;99.90
66504;DHT22;53329;44.878;20.636;2022-12-07T13:30:24;7.90;99.90
66504;DHT22;53329;44.878;20.636;2022-12-07T13:32:59;7.90;99.90
66504;DHT22;53329;44.878;20.636;2022-12-07T13:35:29;7.90;99.90
66504;DHT22;53329;44.878;20.636;2022-12-07T13:37:55;8.00;99.90
66504;DHT22;53329;44.878;20.636;2022-12-07T13:40:22;7.70;99.90
66504;DHT22;53329;44.878;20.636;2022-12-07T13:43:00;7.70;99.90
66504;DHT22;53329;44.878;20.636;2022-12-07T13:45:32;7.70;99.90
66504;DHT22;53329;44.878;20.636;2022-12-07T13:48:35;7.60;99.90
66504;DHT22;53329;44.878;20.636;2022-12-07T13:51:03;7.70;99.90
66504;DHT22;53329;44.878;20.636;2022-12-07T13:53:29;7.70;99.90
66504;DHT22;53329;44.878;20.636;2022-12-07T13:55:59;7.70;99.90
66504;DHT22;53329;44.878;20.636;2022-12-07T13:58:27;7.60;99.90
66504;DHT22;53329;44.878;20.636;2022-12-07T14:00:55;7.60;99.90
66504;DHT22;53329;44.878;20.636;2022-12-07T14:03:32;7.70;99.90
66504;DHT22;53329;44.878;20.636;2022-12-07T14:06:17;7.70;99.90
66504;DHT22;53329;44.878;20.636;2022-12-07T14:08:44;7.90;99.90
66504;DHT22;53329;44.878;20.636;2022-12-07T14:11:15;7.80;99.90
66504;DHT22;53329;44.878;20.636;2022-12-07T14:13:51;7.80;99.90
66504;DHT22;53329;44.878;20.636;2022-12-07T14:16:37;7.60;99.90
66504;DHT22;53329;44.878;20.636;2022-12-07T14:19:42;7.60;99.90
66504;DHT22;53329;44.878;20.636;2022-12-07T14:22:17;7.50;99.90
66504;DHT22;53329;44.878;20.636;2022-12-07T14:24:44;7.40;99.90
66504;DHT22;53329;44.878;20.636;2022-12-07T14:27:23;7.40;99.90
66504;DHT22;53329;44.878;20.636;2022-12-07T14:29:55;7.40;99.90
66504;DHT22;53329;44.878;20.636;2022-12-07T14:32:26;7.50;99.90
66504;DHT22;53329;44.878;20.636;2022-12-07T14:34:57;7.40;99.90
66504;DHT22;53329;44.878;20.636;2022-12-07T14:37:23;7.50;99.90
66504;DHT22;53329;44.878;20.636;2022-12-07T14:39:49;7.40;99.90
66504;DHT22;53329;44.878;20.636;2022-12-07T14:42:28;7.40;99.90
66504;DHT22;53329;44.878;20.636;2022-12-07T14:45:30;7.40;99.90
66504;DHT22;53329;44.878;20.636;2022-12-07T14:47:55;7.40;99.90
66504;DHT22;53329;44.878;20.636;2022-12-07T14:50:22;7.40;99.90
66504;DHT22;53329;44.878;20.636;2022-12-07T14:53:01;7.40;99.90
66504;DHT22;53329;44.878;20.636;2022-12-07T14:55:30;7.50;99.90
66504;DHT22;53329;44.878;20.636;2022-12-07T14:57:56;7.50;99.90
66504;DHT22;53329;44.878;20.636;2022-12-07T15:00:24;7.40;99.90
66504;DHT22;53329;44.878;20.636;2022-12-07T15:02:51;7.40;99.90
66504;DHT22;53329;44.878;20.636;2022-12-07T15:05:36;7.40;99.90
66504;DHT22;53329;44.878;20.636;2022-12-07T15:08:02;7.30;99.90
66504;DHT22;53329;44.878;20.636;2022-12-07T15:10:31;7.30;99.90
66504;DHT22;53329;44.878;20.636;2022-12-07T15:12:58;7.30;99.90
66504;DHT22;53329;44.878;20.636;2022-12-07T15:15:44;7.40;99.90
66504;DHT22;53329;44.878;20.636;2022-12-07T15:18:09;7.40;99.90
66504;DHT22;53329;44.878;20.636;2022-12-07T15:20:35;7.40;99.90
66504;DHT22;53329;44.878;20.636;2022-12-07T15:23:01;7.40;99.90
66504;DHT22;53329;44.878;20.636;2022-12-07T15:25:27;7.40;99.90
66504;DHT22;53329;44.878;20.636;2022-12-07T15:27:53;7.40;99.90
66504;DHT22;53329;44.878;20.636;2022-12-07T15:30:38;7.40;99.90
66504;DHT22;53329;44.878;20.636;2022-12-07T15:33:04;7.50;99.90
66504;DHT22;53329;44.878;20.636;2022-12-07T15:35:30;7.60;99.90
66504;DHT22;53329;44.878;20.636;2022-12-07T15:37:55;7.70;99.90
66504;DHT22;53329;44.878;20.636;2022-12-07T15:40:21;7.80;99.90
66504;DHT22;53329;44.878;20.636;2022-12-07T15:42:47;7.80;99.90
66504;DHT22;53329;44.878;20.636;2022-12-07T15:45:13;7.80;99.90
66504;DHT22;53329;44.878;20.636;2022-12-07T15:47:40;7.60;99.90
66504;DHT22;53329;44.878;20.636;2022-12-07T15:50:10;7.60;99.90
66504;DHT22;53329;44.878;20.636;2022-12-07T15:52:46;7.60;99.90
66504;DHT22;53329;44.878;20.636;2022-12-07T15:55:12;7.60;99.90
66504;DHT22;53329;44.878;20.636;2022-12-07T15:57:38;7.60;99.90
66504;DHT22;53329;44.878;20.636;2022-12-07T16:00:05;7.60;99.90
66504;DHT22;53329;44.878;20.636;2022-12-07T16:02:31;7.40;99.90
66504;DHT22;53329;44.878;20.636;2022-12-07T16:04:57;7.50;99.90
66504;DHT22;53329;44.878;20.636;2022-12-07T16:07:43;7.50;99.90
66504;DHT22;53329;44.878;20.636;2022-12-07T16:10:11;7.50;99.90